createdAt,value
2018-01-17T00:00:23.546Z,99193.16
2018-01-17T00:02:51.842Z,99186.03
2018-01-17T00:05:20.134Z,99189.40
2018-01-17T00:07:48.452Z,99195.81
2018-01-17T00:10:17.609Z,99200.19
2018-01-17T00:12:46.019Z,99198.46
2018-01-17T00:15:14.321Z,99200.80
2018-01-17T00:17:43.417Z,99199.44
2018-01-17T00:20:12.762Z,99191.28
2018-01-17T00:22:42.928Z,99184.56
2018-01-17T00:25:11.268Z,99193.20
2018-01-17T00:27:39.585Z,99187.59
2018-01-17T00:30:07.892Z,99190.04
2018-01-17T00:32:36.239Z,99187.49
2018-01-17T00:35:04.644Z,99187.19
2018-01-17T00:37:33.789Z,99190.66
2018-01-17T00:40:02.086Z,99189.55
2018-01-17T00:42:30.417Z,99185.68
2018-01-17T00:44:59.506Z,99190.87
2018-01-17T00:47:27.785Z,99187.00
2018-01-17T00:49:56.084Z,99192.30
2018-01-17T00:52:24.444Z,99195.66
2018-01-17T00:54:52.881Z,99194.24
2018-01-17T00:57:22.001Z,99197.43
2018-01-17T00:59:50.446Z,99188.44
2018-01-17T01:02:19.512Z,99186.09
2018-01-17T01:04:47.873Z,99197.19
2018-01-17T01:07:16.181Z,99198.82
2018-01-17T01:09:45.445Z,99204.32
2018-01-17T01:12:13.754Z,99203.44
2018-01-17T01:14:42.073Z,99209.86
2018-01-17T01:17:11.357Z,99209.77
2018-01-17T01:19:39.667Z,99231.66
2018-01-17T01:22:08.741Z,99221.98
2018-01-17T01:24:37.155Z,99214.84
2018-01-17T01:27:05.594Z,99229.47
2018-01-17T01:29:33.909Z,99219.53
2018-01-17T01:32:02.976Z,99221.88
2018-01-17T01:34:31.293Z,99219.94
2018-01-17T01:37:00.386Z,99210.33
2018-01-17T01:39:29.489Z,99216.13
2018-01-17T01:41:58.543Z,99222.75
2018-01-17T01:44:26.899Z,99221.27
2018-01-17T01:46:55.189Z,99227.06
2018-01-17T01:49:23.508Z,99231.84
2018-01-17T01:51:51.873Z,99223.16
2018-01-17T01:54:20.232Z,99227.95
2018-01-17T01:56:48.547Z,99239.15
2018-01-17T01:59:16.886Z,99232.16
2018-01-17T02:01:45.204Z,99243.36
2018-01-17T02:04:13.545Z,99249.98
2018-01-17T02:06:41.851Z,99261.45
2018-01-17T02:09:10.153Z,99258.39
2018-01-17T02:11:38.483Z,99268.98
2018-01-17T02:14:07.580Z,99273.36
2018-01-17T02:16:35.921Z,99275.40
2018-01-17T02:19:04.448Z,99268.17
2018-01-17T02:21:33.609Z,99275.70
2018-01-17T02:24:01.912Z,99277.74
2018-01-17T02:26:30.991Z,99285.08
2018-01-17T02:28:59.313Z,99290.61
2018-01-17T02:31:28.373Z,99269.53
2018-01-17T02:33:56.925Z,99275.53
2018-01-17T02:36:25.234Z,99274.89
2018-01-17T02:38:53.577Z,99275.53
2018-01-17T02:41:21.882Z,99280.19
2018-01-17T02:43:50.203Z,99274.58
2018-01-17T02:46:18.525Z,99279.57
2018-01-17T02:48:46.897Z,99274.98
2018-01-17T02:51:15.190Z,99275.59
2018-01-17T02:53:43.543Z,99280.80
2018-01-17T02:56:12.672Z,99272.95
2018-01-17T02:58:40.998Z,99280.49
2018-01-17T03:01:09.357Z,99284.77
2018-01-17T03:03:37.683Z,99274.79
2018-01-17T03:06:06.737Z,99288.37
2018-01-17T03:08:35.030Z,99294.45
2018-01-17T03:11:03.337Z,99284.80
2018-01-17T03:13:31.659Z,99287.14
2018-01-17T03:15:59.983Z,99295.09
2018-01-17T03:18:28.322Z,99300.38
2018-01-17T03:20:56.627Z,99302.02
2018-01-17T03:23:24.945Z,99301.30
2018-01-17T03:25:53.259Z,99301.30
2018-01-17T03:28:21.619Z,99309.86
2018-01-17T03:30:50.693Z,99323.30
2018-01-17T03:33:18.997Z,99312.50
2018-01-17T03:35:47.329Z,99328.69
2018-01-17T03:38:15.669Z,99343.97
2018-01-17T03:40:44.812Z,99325.13
2018-01-17T03:43:13.201Z,99331.95
2018-01-17T03:45:41.499Z,99336.84
2018-01-17T03:48:09.779Z,99353.64
2018-01-17T03:50:38.178Z,99344.80
2018-01-17T03:53:06.481Z,99356.91
2018-01-17T03:55:35.555Z,99353.87
2018-01-17T03:58:03.849Z,99366.41
2018-01-17T04:00:32.969Z,99357.34
2018-01-17T04:03:01.293Z,99357.23
2018-01-17T04:05:29.578Z,99378.91
2018-01-17T04:07:57.880Z,99376.27
2018-01-17T04:10:26.185Z,99372.26
2018-01-17T04:12:55.301Z,99375.84
2018-01-17T04:15:23.593Z,99382.44
2018-01-17T04:17:52.154Z,99385.91
2018-01-17T04:20:21.255Z,99384.98
2018-01-17T04:22:50.342Z,99392.73
2018-01-17T04:25:18.637Z,99387.14
2018-01-17T04:27:47.710Z,99404.62
2018-01-17T04:30:16.013Z,99404.51
2018-01-17T04:32:45.110Z,99407.91
2018-01-17T04:35:14.174Z,99413.82
2018-01-17T04:37:42.493Z,99416.78
2018-01-17T04:40:11.718Z,99414.75
2018-01-17T04:42:40.040Z,99423.98
2018-01-17T04:45:08.314Z,99429.00
2018-01-17T04:47:36.615Z,99433.34
2018-01-17T04:50:04.946Z,99426.15
2018-01-17T04:52:33.244Z,99441.19
2018-01-17T04:55:01.635Z,99436.94
2018-01-17T04:57:29.968Z,99442.13
2018-01-17T04:59:59.032Z,99441.20
2018-01-17T05:02:27.333Z,99449.22
2018-01-17T05:04:55.622Z,99447.60
2018-01-17T05:07:23.947Z,99463.59
2018-01-17T05:09:52.276Z,99459.63
2018-01-17T05:12:20.618Z,99476.83
2018-01-17T05:14:49.054Z,99481.70
2018-01-17T05:17:17.385Z,99480.16
2018-01-17T05:19:45.685Z,99476.58
2018-01-17T05:22:13.984Z,99492.32
2018-01-17T05:24:42.312Z,99486.81
2018-01-17T05:27:11.322Z,99493.43
2018-01-17T05:29:39.652Z,99500.95
2018-01-17T05:32:08.738Z,99506.87
2018-01-17T05:34:37.080Z,99507.70
2018-01-17T05:37:05.400Z,99519.20
2018-01-17T05:39:33.709Z,99512.27
2018-01-17T05:42:02.773Z,99509.43
2018-01-17T05:44:31.082Z,99516.75
2018-01-17T05:46:59.392Z,99517.41
2018-01-17T05:49:27.713Z,99524.83
2018-01-17T05:51:56.017Z,99513.59
2018-01-17T05:54:24.296Z,99525.52
2018-01-17T05:56:52.611Z,99524.61
2018-01-17T05:59:20.915Z,99531.52
2018-01-17T06:01:49.318Z,99536.69
2018-01-17T06:04:17.637Z,99531.18
2018-01-17T06:06:45.942Z,99545.11
2018-01-17T06:09:14.273Z,99547.85
2018-01-17T06:11:42.601Z,99549.37
2018-01-17T06:14:11.702Z,99557.40
2018-01-17T06:16:40.015Z,99555.89
2018-01-17T06:19:08.352Z,99564.44
2018-01-17T06:21:37.488Z,99576.43
2018-01-17T06:24:05.782Z,99580.69
2018-01-17T06:26:34.102Z,99583.53
2018-01-17T06:29:02.430Z,99589.13
2018-01-17T06:31:30.715Z,99593.12
2018-01-17T06:33:59.014Z,99610.30
2018-01-17T06:36:27.321Z,99621.61
2018-01-17T06:38:55.603Z,99628.44
2018-01-17T06:41:23.917Z,99638.53
2018-01-17T06:43:52.291Z,99635.80
2018-01-17T06:46:21.352Z,99651.37
2018-01-17T06:48:49.660Z,99650.47
2018-01-17T06:51:18.717Z,99658.09
2018-01-17T06:53:47.020Z,99663.47
2018-01-17T06:56:15.323Z,99662.84
2018-01-17T06:58:44.396Z,99664.17
2018-01-17T07:01:12.709Z,99665.30
2018-01-17T07:03:41.800Z,99675.78
2018-01-17T07:06:10.123Z,99680.06
2018-01-17T07:08:38.437Z,99679.76
2018-01-17T07:11:06.752Z,99693.30
2018-01-17T07:13:35.818Z,99699.00
2018-01-17T07:16:04.943Z,99719.44
2018-01-17T07:18:33.255Z,99704.23
2018-01-17T07:21:01.558Z,99688.12
2018-01-17T07:23:29.893Z,99700.59
2018-01-17T07:25:58.226Z,99712.18
2018-01-17T07:28:26.532Z,99698.55
2018-01-17T07:30:54.826Z,99720.62
2018-01-17T07:33:23.160Z,99711.67
2018-01-17T07:35:51.454Z,99721.84
2018-01-17T07:38:19.770Z,99722.88
2018-01-17T07:40:48.111Z,99737.97
2018-01-17T07:43:16.584Z,99733.30
2018-01-17T07:45:44.890Z,99733.90
2018-01-17T07:48:13.222Z,99752.35
2018-01-17T07:50:41.574Z,99740.89
2018-01-17T07:53:09.886Z,99753.95
2018-01-17T07:55:38.194Z,99766.62
2018-01-17T07:58:07.458Z,99772.44
2018-01-17T08:00:36.537Z,99765.86
2018-01-17T08:03:05.769Z,99778.92
2018-01-17T08:05:34.836Z,99776.02
2018-01-17T08:08:04.081Z,99775.95
2018-01-17T08:10:33.912Z,99776.09
2018-01-17T08:13:03.020Z,99771.30
2018-01-17T08:15:31.324Z,99755.20
2018-01-17T08:17:59.618Z,99781.45
2018-01-17T08:20:28.024Z,99771.28
2018-01-17T08:22:56.357Z,99777.52
2018-01-17T08:25:24.691Z,99800.63
2018-01-17T08:27:53.760Z,99808.92
2018-01-17T08:30:22.074Z,99851.63
2018-01-17T08:32:51.138Z,99843.98
2018-01-17T08:35:19.496Z,99841.98
2018-01-17T08:37:47.792Z,99840.92
2018-01-17T08:40:16.113Z,99829.72
2018-01-17T08:42:44.402Z,99836.59
2018-01-17T08:45:13.482Z,99842.98
2018-01-17T08:47:41.817Z,99847.85
2018-01-17T08:50:10.122Z,99856.02
2018-01-17T08:52:38.434Z,99852.87
2018-01-17T08:55:07.607Z,99844.48
2018-01-17T08:57:35.924Z,99854.73
2018-01-17T09:00:04.229Z,99854.59
2018-01-17T09:02:32.538Z,99850.20
2018-01-17T09:05:00.824Z,99867.89
2018-01-17T09:07:29.136Z,99865.59
2018-01-17T09:09:57.442Z,99862.94
2018-01-17T09:12:26.500Z,99855.79
2018-01-17T09:14:54.809Z,99865.22
2018-01-17T09:17:23.097Z,99879.66
2018-01-17T09:19:52.155Z,99874.58
2018-01-17T09:22:21.220Z,99887.56
2018-01-17T09:24:49.526Z,99865.81
2018-01-17T09:27:17.836Z,99865.00
2018-01-17T09:29:46.137Z,99869.06
2018-01-17T09:32:15.208Z,99877.00
2018-01-17T09:34:43.505Z,99875.05
2018-01-17T09:37:11.818Z,99883.72
2018-01-17T09:39:40.116Z,99882.64
2018-01-17T09:42:08.427Z,99896.73
2018-01-17T09:44:36.747Z,99892.69
2018-01-17T09:47:05.808Z,99891.70
2018-01-17T09:49:34.131Z,99892.45
2018-01-17T09:52:03.221Z,99903.50
2018-01-17T09:54:32.351Z,99918.73
2018-01-17T09:57:00.705Z,99913.95
2018-01-17T09:59:29.008Z,99933.88
2018-01-17T10:01:57.297Z,99921.05
2018-01-17T10:04:25.622Z,99934.09
2018-01-17T10:06:53.932Z,99935.06
2018-01-17T10:09:23.008Z,99949.84
2018-01-17T10:11:51.300Z,99937.66
2018-01-17T10:14:19.615Z,99926.05
2018-01-17T10:16:47.900Z,99917.40
2018-01-17T10:19:16.210Z,99921.33
2018-01-17T10:24:19.030Z,99941.54
2018-01-17T10:26:47.326Z,99913.89
2018-01-17T10:29:16.394Z,99937.45
2018-01-17T10:31:44.724Z,99943.33
2018-01-17T10:34:13.032Z,99962.59
2018-01-17T10:36:41.338Z,99945.78
2018-01-17T10:39:09.637Z,99953.77
2018-01-17T10:41:37.936Z,99972.59
2018-01-17T10:44:06.239Z,99981.89
2018-01-17T10:46:35.310Z,99957.72
2018-01-17T10:49:03.718Z,99966.47
2018-01-17T10:51:32.806Z,99967.03
2018-01-17T10:54:01.898Z,99972.38
2018-01-17T10:56:30.236Z,99994.72
2018-01-17T10:58:59.363Z,100001.88
2018-01-17T11:01:27.668Z,99996.98
2018-01-17T11:03:56.748Z,99993.23
2018-01-17T11:06:25.050Z,99987.73
2018-01-17T11:08:54.232Z,99996.00
2018-01-17T11:11:22.872Z,99993.50
2018-01-17T11:13:51.168Z,100013.40
2018-01-17T11:16:19.457Z,100027.91
2018-01-17T11:18:47.758Z,99981.15
2018-01-17T11:21:16.096Z,100009.33
2018-01-17T11:23:44.534Z,100022.81
2018-01-17T11:26:12.888Z,100023.37
2018-01-17T11:28:41.183Z,100011.45
2018-01-17T11:31:09.520Z,100031.66
2018-01-17T11:33:37.811Z,100025.73
2018-01-17T11:36:06.123Z,100033.95
2018-01-17T11:38:34.426Z,100034.85
2018-01-17T11:41:03.662Z,100051.17
2018-01-17T11:43:31.980Z,100034.25
2018-01-17T11:46:01.150Z,100020.25
2018-01-17T11:48:29.474Z,100044.22
2018-01-17T11:50:57.790Z,100051.66
2018-01-17T11:53:26.898Z,100054.00
2018-01-17T11:55:55.962Z,100070.08
2018-01-17T11:58:24.292Z,100066.59
2018-01-17T12:00:52.606Z,100061.54
2018-01-17T12:03:21.698Z,100089.61
2018-01-17T12:05:50.919Z,100079.06
2018-01-17T12:08:19.239Z,100088.25
2018-01-17T12:10:48.382Z,100094.28
2018-01-17T12:13:16.772Z,100088.00
2018-01-17T12:15:45.076Z,100130.35
2018-01-17T12:18:13.404Z,100114.57
2018-01-17T12:20:41.726Z,100114.51
2018-01-17T12:23:10.024Z,100116.71
2018-01-17T12:25:38.358Z,100123.31
2018-01-17T12:28:07.690Z,100141.69
2018-01-17T12:30:36.072Z,100132.62
2018-01-17T12:33:04.410Z,100124.38
2018-01-17T12:35:33.503Z,100154.41
2018-01-17T12:38:01.834Z,100162.27
2018-01-17T12:40:30.160Z,100147.83
2018-01-17T12:43:00.058Z,100155.91
2018-01-17T12:45:28.378Z,100161.84
2018-01-17T12:47:56.698Z,100180.92
2018-01-17T12:50:25.040Z,100165.52
2018-01-17T12:52:53.412Z,100188.06
2018-01-17T12:55:22.496Z,100186.17
2018-01-17T12:57:51.036Z,100194.64
2018-01-17T13:00:19.364Z,100197.42
2018-01-17T13:02:47.697Z,100191.67
2018-01-17T13:05:17.954Z,100209.59
2018-01-17T13:07:46.264Z,100202.14
2018-01-17T13:10:16.200Z,100228.39
2018-01-17T13:12:45.410Z,100203.61
2018-01-17T13:15:13.803Z,100204.55
2018-01-17T13:17:43.077Z,100195.91
2018-01-17T13:20:11.413Z,100217.47
2018-01-17T13:22:39.744Z,100204.30
2018-01-17T13:25:08.836Z,100215.33
2018-01-17T13:27:37.962Z,100238.73
2018-01-17T13:30:07.057Z,100252.82
2018-01-17T13:32:35.369Z,100242.43
2018-01-17T13:35:04.157Z,100245.44
2018-01-17T13:37:32.451Z,100246.98
2018-01-17T13:40:00.802Z,100242.84
2018-01-17T13:42:29.147Z,100242.06
2018-01-17T13:44:57.464Z,100255.33
2018-01-17T13:47:26.084Z,100268.22
2018-01-17T13:49:55.187Z,100281.62
2018-01-17T13:52:23.530Z,100250.40
2018-01-17T13:54:52.053Z,100265.13
2018-01-17T13:57:20.418Z,100275.84
2018-01-17T13:59:48.759Z,100268.19
2018-01-17T14:02:17.847Z,100279.12
2018-01-17T14:04:46.943Z,100300.77
2018-01-17T14:07:15.237Z,100293.72
2018-01-17T14:09:44.327Z,100319.03
2018-01-17T14:12:12.653Z,100310.70
2018-01-17T14:14:42.004Z,100330.45
2018-01-17T14:17:10.318Z,100325.45
2018-01-17T14:19:38.707Z,100324.77
2018-01-17T14:22:07.114Z,100326.41
2018-01-17T14:24:35.741Z,100338.29
2018-01-17T14:27:04.863Z,100324.52
2018-01-17T14:29:33.929Z,100338.42
2018-01-17T14:32:02.249Z,100337.72
2018-01-17T14:34:31.339Z,100353.44
2018-01-17T14:36:59.731Z,100358.75
2018-01-17T14:39:28.050Z,100364.16
2018-01-17T14:41:56.441Z,100387.23
2018-01-17T14:44:24.827Z,100382.14
2018-01-17T14:46:53.157Z,100408.28
2018-01-17T14:49:22.236Z,100395.33
2018-01-17T14:51:50.538Z,100402.66
2018-01-17T14:54:20.585Z,100396.97
2018-01-17T14:56:48.912Z,100391.79
2018-01-17T14:59:17.220Z,100408.86
2018-01-17T15:01:46.525Z,100423.28
2018-01-17T15:04:16.621Z,100423.98
2018-01-17T15:06:45.024Z,100439.28
2018-01-17T15:09:14.101Z,100418.22
2018-01-17T15:11:42.403Z,100431.18
2018-01-17T15:14:11.664Z,100452.23
2018-01-17T15:16:39.943Z,100439.47
2018-01-17T15:19:09.027Z,100442.34
2018-01-17T15:21:38.275Z,100449.30
2018-01-17T15:24:06.654Z,100440.45
2018-01-17T15:26:35.015Z,100456.30
2018-01-17T15:29:03.347Z,100455.19
2018-01-17T15:31:35.285Z,100470.13
2018-01-17T15:34:03.577Z,100463.67
2018-01-17T15:36:31.925Z,100476.95
2018-01-17T15:39:01.189Z,100486.03
2018-01-17T15:41:29.513Z,100492.58
2018-01-17T15:43:57.821Z,100489.92
2018-01-17T15:46:26.138Z,100494.31
2018-01-17T15:48:54.453Z,100500.34
2018-01-17T15:51:22.750Z,100500.95
2018-01-17T15:53:52.627Z,100507.68
2018-01-17T15:56:20.965Z,100505.44
2018-01-17T15:58:49.275Z,100519.22
2018-01-17T16:01:18.159Z,100518.81
2018-01-17T16:03:47.250Z,100511.38
2018-01-17T16:06:16.348Z,100519.45
2018-01-17T16:08:45.536Z,100514.05
2018-01-17T16:11:14.719Z,100528.88
2018-01-17T16:13:44.837Z,100527.55
2018-01-17T16:16:13.153Z,100532.36
2018-01-17T16:18:41.501Z,100529.02
2018-01-17T16:21:11.519Z,100536.61
2018-01-17T16:23:39.853Z,100546.68
2018-01-17T16:26:10.437Z,100548.52
2018-01-17T16:28:38.819Z,100554.70
2018-01-17T16:31:07.991Z,100548.44
2018-01-17T16:33:36.295Z,100558.05
2018-01-17T16:36:04.605Z,100552.61
2018-01-17T16:38:32.941Z,100562.82
2018-01-17T16:41:01.275Z,100560.34
2018-01-17T16:43:29.569Z,100564.15
2018-01-17T16:45:59.535Z,100567.81
2018-01-17T16:48:27.903Z,100568.55
2018-01-17T16:50:56.260Z,100569.91
2018-01-17T16:53:25.351Z,100568.59
2018-01-17T16:55:55.342Z,100572.66
2018-01-17T16:58:26.121Z,100559.50
2018-01-17T17:00:54.485Z,100557.89
2018-01-17T17:03:23.607Z,100571.91
2018-01-17T17:05:51.948Z,100569.53
2018-01-17T17:08:20.256Z,100565.83
2018-01-17T17:10:49.369Z,100575.03
2018-01-17T17:13:18.451Z,100573.80
2018-01-17T17:15:46.779Z,100576.73
2018-01-17T17:18:15.301Z,100577.69
2018-01-17T17:20:43.741Z,100581.17
2018-01-17T17:23:12.066Z,100581.95
2018-01-17T17:25:40.457Z,100573.00
2018-01-17T17:28:08.819Z,100578.72
2018-01-17T17:30:37.147Z,100590.94
2018-01-17T17:33:06.218Z,100576.92
2018-01-17T17:35:34.517Z,100595.74
2018-01-17T17:38:04.424Z,100590.84
2018-01-17T17:40:32.749Z,100574.23
2018-01-17T17:43:01.081Z,100575.98
2018-01-17T17:45:30.182Z,100578.58
2018-01-17T17:47:58.832Z,100594.34
2018-01-17T17:50:27.179Z,100592.65
2018-01-17T17:52:56.269Z,100595.47
2018-01-17T17:55:26.242Z,100600.89
2018-01-17T17:57:54.571Z,100605.55
2018-01-17T18:00:23.129Z,100599.50
2018-01-17T18:02:51.476Z,100601.41
2018-01-17T18:05:19.856Z,100600.81
2018-01-17T18:07:48.160Z,100597.74
2018-01-17T18:10:17.513Z,100601.93
2018-01-17T18:12:47.566Z,100596.20
2018-01-17T18:15:17.309Z,100590.44
2018-01-17T18:17:45.750Z,100587.87
2018-01-17T18:20:14.099Z,100588.41
2018-01-17T18:22:43.190Z,100580.46
2018-01-17T18:25:11.547Z,100585.87
2018-01-17T18:27:39.884Z,100585.69
2018-01-17T18:30:08.967Z,100596.96
2018-01-17T18:32:37.312Z,100592.41
2018-01-17T18:35:05.719Z,100599.47
2018-01-17T18:37:34.059Z,100593.67
2018-01-17T18:40:03.027Z,100599.23
2018-01-17T18:42:32.124Z,100599.14
2018-01-17T18:45:01.218Z,100595.53
2018-01-17T18:47:29.602Z,100584.36
2018-01-17T18:49:58.689Z,100587.40
2018-01-17T18:52:27.022Z,100585.75
2018-01-17T18:54:55.328Z,100588.53
2018-01-17T18:57:23.640Z,100586.51
2018-01-17T18:59:51.955Z,100574.79
2018-01-17T19:02:21.082Z,100576.84
2018-01-17T19:04:49.404Z,100580.11
2018-01-17T19:07:17.691Z,100589.52
2018-01-17T19:09:46.895Z,100590.72
2018-01-17T19:12:15.954Z,100584.51
2018-01-17T19:14:44.283Z,100575.77
2018-01-17T19:17:12.640Z,100578.33
2018-01-17T19:19:41.008Z,100587.57
2018-01-17T19:22:09.311Z,100587.16
2018-01-17T19:24:38.190Z,100576.92
2018-01-17T19:27:06.539Z,100575.94
2018-01-17T19:29:35.083Z,100577.17
2018-01-17T19:32:04.193Z,100576.88
2018-01-17T19:34:33.285Z,100594.48
2018-01-17T19:37:02.378Z,100587.93
2018-01-17T19:39:31.494Z,100579.25
2018-01-17T19:42:00.625Z,100582.23
2018-01-17T19:44:28.946Z,100575.64
2018-01-17T19:46:57.369Z,100584.62
2018-01-17T19:49:25.664Z,100580.59
2018-01-17T19:51:56.194Z,100573.88
2018-01-17T19:54:24.574Z,100586.36
2018-01-17T19:56:52.891Z,100590.06
2018-01-17T19:59:23.378Z,100583.50
2018-01-17T20:01:52.640Z,100580.87
2018-01-17T20:04:21.796Z,100583.84
2018-01-17T20:06:50.249Z,100580.67
2018-01-17T20:09:19.381Z,100585.27
2018-01-17T20:11:47.761Z,100579.20
2018-01-17T20:14:16.087Z,100584.39
2018-01-17T20:16:44.775Z,100586.42
2018-01-17T20:19:13.196Z,100581.84
2018-01-17T20:21:42.288Z,100575.98
2018-01-17T20:24:11.378Z,100574.95
2018-01-17T20:26:39.704Z,100586.87
2018-01-17T20:29:08.854Z,100579.58
2018-01-17T20:31:37.186Z,100578.64
2018-01-17T20:34:05.544Z,100584.88
2018-01-17T20:36:33.867Z,100581.84
2018-01-17T20:39:02.215Z,100587.34
2018-01-17T20:41:31.343Z,100596.34
2018-01-17T20:43:59.702Z,100590.42
2018-01-17T20:46:28.029Z,100598.31
2018-01-17T20:48:56.366Z,100602.30
2018-01-17T20:51:24.844Z,100600.24
2018-01-17T20:53:53.215Z,100595.96
2018-01-17T20:56:21.520Z,100605.02
2018-01-17T20:58:50.592Z,100605.43
2018-01-17T21:01:19.702Z,100601.60
2018-01-17T21:03:48.020Z,100612.34
2018-01-17T21:06:16.346Z,100600.53
2018-01-17T21:08:44.812Z,100607.66
2018-01-17T21:11:13.159Z,100607.66
2018-01-17T21:13:41.505Z,100604.69
2018-01-17T21:16:11.426Z,100592.56
2018-01-17T21:18:40.537Z,100603.11
2018-01-17T21:21:08.895Z,100595.59
2018-01-17T21:23:37.283Z,100599.78
2018-01-17T21:26:08.191Z,100601.02
2018-01-17T21:28:36.564Z,100606.11
2018-01-17T21:31:05.309Z,100601.39
2018-01-17T21:33:34.425Z,100608.17
2018-01-17T21:36:02.885Z,100594.88
2018-01-17T21:38:32.035Z,100587.49
2018-01-17T21:41:00.400Z,100584.33
2018-01-17T21:43:34.446Z,100591.80
2018-01-17T21:46:02.798Z,100593.23
2018-01-17T21:48:31.128Z,100579.39
2018-01-17T21:50:59.449Z,100576.47
2018-01-17T21:53:27.812Z,100584.04
2018-01-17T21:55:56.152Z,100578.50
2018-01-17T21:58:24.606Z,100589.64
2018-01-17T22:00:52.918Z,100576.00
2018-01-17T22:03:21.250Z,100580.14
2018-01-17T22:05:50.352Z,100585.75
2018-01-17T22:08:19.498Z,100573.63
2018-01-17T22:10:48.055Z,100555.48
2018-01-17T22:13:16.505Z,100576.06
2018-01-17T22:15:45.576Z,100573.38
2018-01-17T22:18:13.896Z,100576.98
2018-01-17T22:20:42.976Z,100564.09
2018-01-17T22:23:12.235Z,100567.67
2018-01-17T22:25:40.555Z,100566.13
2018-01-17T22:28:08.922Z,100567.55
2018-01-17T22:30:37.242Z,100550.67
2018-01-17T22:33:05.566Z,100546.17
2018-01-17T22:35:33.914Z,100554.16
2018-01-17T22:38:03.012Z,100560.67
2018-01-17T22:40:32.088Z,100549.72
2018-01-17T22:43:00.390Z,100530.38
2018-01-17T22:45:29.470Z,100539.78
2018-01-17T22:47:58.761Z,100524.96
2018-01-17T22:50:27.066Z,100517.71
2018-01-17T22:52:55.425Z,100514.86
2018-01-17T22:55:23.750Z,100515.27
2018-01-17T22:57:52.106Z,100509.35
2018-01-17T23:00:20.404Z,100506.28
2018-01-17T23:02:48.789Z,100491.41
2018-01-17T23:05:17.118Z,100494.16
2018-01-17T23:07:45.463Z,100495.59
2018-01-17T23:10:14.560Z,100492.73
2018-01-17T23:12:43.686Z,100486.21
2018-01-17T23:15:11.998Z,100490.61
2018-01-17T23:17:40.340Z,100483.96
2018-01-17T23:20:08.671Z,100482.92
2018-01-17T23:22:36.997Z,100481.08
2018-01-17T23:25:05.307Z,100454.61
2018-01-17T23:27:33.630Z,100455.13
2018-01-17T23:30:01.966Z,100461.80
2018-01-17T23:32:30.307Z,100452.48
2018-01-17T23:34:58.717Z,100432.03
2018-01-17T23:37:27.024Z,100431.52
2018-01-17T23:39:55.367Z,100430.70
2018-01-17T23:42:24.467Z,100423.42
2018-01-17T23:44:54.408Z,100418.52
2018-01-17T23:47:22.720Z,100417.40
2018-01-17T23:49:51.040Z,100406.45
2018-01-17T23:52:20.164Z,100410.75
2018-01-17T23:54:50.148Z,100396.02
2018-01-17T23:57:18.538Z,100382.83
2018-01-17T23:59:48.432Z,100383.84
